createdAt,value
2017-07-10T00:02:08.627Z,16.40
2017-07-10T00:07:10.453Z,16.67
2017-07-10T00:12:12.165Z,16.77
2017-07-10T00:17:13.893Z,17.27
2017-07-10T00:22:15.670Z,16.70
2017-07-10T00:27:17.410Z,16.83
2017-07-10T00:32:19.154Z,16.97
2017-07-10T00:37:20.930Z,17.17
2017-07-10T00:42:22.708Z,16.67
2017-07-10T00:47:25.159Z,18.90
2017-07-10T00:52:26.903Z,18.70
2017-07-10T00:57:28.626Z,17.60
2017-07-10T01:02:31.676Z,17.80
2017-07-10T01:07:33.521Z,16.80
2017-07-10T01:12:35.284Z,17.47
2017-07-10T01:17:37.594Z,17.63
2017-07-10T01:22:40.441Z,17.60
2017-07-10T01:27:42.598Z,16.90
2017-07-10T01:32:45.143Z,18.97
2017-07-10T01:37:48.264Z,17.50
2017-07-10T01:42:50.591Z,19.23
2017-07-10T01:47:52.335Z,18.20
2017-07-10T01:52:54.679Z,18.60
2017-07-10T01:57:57.038Z,18.43
2017-07-10T02:03:00.108Z,18.27
2017-07-10T02:08:01.919Z,17.97
2017-07-10T02:13:04.439Z,18.07
2017-07-10T02:18:06.196Z,16.97
2017-07-10T02:23:07.950Z,16.90
2017-07-10T02:28:09.686Z,18.07
2017-07-10T02:33:11.722Z,17.70
2017-07-10T02:38:13.497Z,15.57
2017-07-10T02:43:15.255Z,16.33
2017-07-10T02:48:17.111Z,16.50
2017-07-10T02:53:18.865Z,15.00
2017-07-10T02:58:20.794Z,15.90
2017-07-10T03:03:22.639Z,15.00
2017-07-10T03:08:25.139Z,14.80
2017-07-10T03:13:26.970Z,15.57
2017-07-10T03:18:28.937Z,16.90
2017-07-10T03:23:30.919Z,15.70
2017-07-10T03:28:33.696Z,15.33
2017-07-10T03:33:35.436Z,15.10
2017-07-10T03:38:38.558Z,15.80
2017-07-10T03:43:42.087Z,14.83
2017-07-10T03:48:43.910Z,15.20
2017-07-10T03:53:45.904Z,14.90
2017-07-10T03:58:48.396Z,15.63
2017-07-10T04:03:50.120Z,15.80
2017-07-10T04:08:51.919Z,14.87
2017-07-10T04:13:53.748Z,14.07
2017-07-10T04:18:56.664Z,13.47
2017-07-10T04:23:58.674Z,13.47
2017-07-10T04:29:00.427Z,14.10
2017-07-10T04:34:02.207Z,13.93
2017-07-10T04:39:04.696Z,14.30
2017-07-10T04:44:06.427Z,13.90
2017-07-10T04:49:08.186Z,13.80
2017-07-10T04:54:09.917Z,14.00
2017-07-10T04:59:11.700Z,13.30
2017-07-10T05:04:13.414Z,14.03
2017-07-10T05:09:15.197Z,16.00
2017-07-10T05:14:16.939Z,14.03
2017-07-10T05:19:18.668Z,15.57
2017-07-10T05:24:20.483Z,16.80
2017-07-10T05:29:22.205Z,16.17
2017-07-10T05:34:23.918Z,19.60
2017-07-10T05:39:25.647Z,19.97
2017-07-10T05:44:27.387Z,24.93
2017-07-10T05:49:29.607Z,23.20
2017-07-10T05:54:31.362Z,22.60
2017-07-10T05:59:33.117Z,23.40
2017-07-10T06:04:34.885Z,24.90
2017-07-10T06:09:36.666Z,24.53
2017-07-10T06:14:38.372Z,23.70
2017-07-10T06:19:40.100Z,25.00
2017-07-10T06:24:41.844Z,24.70
2017-07-10T06:29:43.597Z,25.80
2017-07-10T06:34:45.306Z,25.40
2017-07-10T06:39:47.056Z,26.03
2017-07-10T06:44:48.776Z,23.23
2017-07-10T06:49:51.313Z,23.70
2017-07-10T06:54:53.023Z,24.97
2017-07-10T06:59:54.840Z,26.23
2017-07-10T07:04:57.123Z,26.43
2017-07-10T07:09:58.855Z,27.50
2017-07-10T07:15:00.604Z,30.83
2017-07-10T07:20:02.336Z,30.17
2017-07-10T07:25:04.680Z,29.60
2017-07-10T07:30:06.411Z,31.00
2017-07-10T07:35:08.155Z,28.00
2017-07-10T07:40:09.874Z,30.33
2017-07-10T07:45:11.620Z,28.37
2017-07-10T07:50:13.363Z,30.20
2017-07-10T07:55:15.110Z,30.47
2017-07-10T08:00:16.918Z,29.80
2017-07-10T08:05:18.780Z,28.93
2017-07-10T08:10:20.543Z,31.07
2017-07-10T08:15:22.338Z,32.20
2017-07-10T08:20:24.847Z,34.53
2017-07-10T08:25:26.571Z,31.63
2017-07-10T08:30:28.287Z,35.93
2017-07-10T08:35:30.051Z,32.70
2017-07-10T08:40:31.793Z,29.73
2017-07-10T08:45:33.505Z,31.30
2017-07-10T08:50:35.984Z,29.90
2017-07-10T08:55:38.427Z,28.83
2017-07-10T09:00:40.150Z,30.73
2017-07-10T09:05:41.907Z,29.30
2017-07-10T09:10:43.628Z,24.90
2017-07-10T09:15:45.379Z,24.20
2017-07-10T09:20:47.147Z,23.90
2017-07-10T09:25:49.640Z,25.17
2017-07-10T09:30:51.381Z,24.30
2017-07-10T09:35:53.112Z,26.87
2017-07-10T09:40:54.820Z,25.20
2017-07-10T09:45:56.545Z,25.00
2017-07-10T09:50:58.268Z,24.23
2017-07-10T09:55:59.995Z,22.73
2017-07-10T10:01:01.767Z,21.77
2017-07-10T10:06:03.573Z,20.37
2017-07-10T10:11:05.642Z,19.57
2017-07-10T10:16:07.370Z,17.63
2017-07-10T10:21:09.091Z,16.93
2017-07-10T10:26:11.551Z,17.53
2017-07-10T10:31:14.013Z,17.53
2017-07-10T10:36:15.746Z,16.60
2017-07-10T10:41:17.471Z,21.13
2017-07-10T10:46:19.232Z,17.43
2017-07-10T10:51:21.004Z,12.83
2017-07-10T10:56:22.758Z,14.40
2017-07-10T11:01:24.477Z,12.03
2017-07-10T11:06:26.210Z,12.33
2017-07-10T11:11:27.941Z,14.50
2017-07-10T11:16:29.760Z,12.17
2017-07-10T11:21:31.475Z,10.80
2017-07-10T11:26:33.228Z,11.90
2017-07-10T11:31:34.972Z,13.63
2017-07-10T11:36:36.683Z,12.90
2017-07-10T11:41:38.415Z,13.47
2017-07-10T11:46:40.209Z,14.10
2017-07-10T11:51:41.961Z,15.50
2017-07-10T11:56:43.748Z,17.37
2017-07-10T12:01:45.534Z,15.23
2017-07-10T12:06:47.316Z,21.60
2017-07-10T12:11:49.835Z,18.87
2017-07-10T12:16:52.345Z,24.07
2017-07-10T12:21:54.116Z,21.33
2017-07-10T12:26:55.887Z,22.13
2017-07-10T12:31:57.612Z,22.40
2017-07-10T12:36:59.382Z,21.93
2017-07-10T12:42:01.107Z,20.87
2017-07-10T12:47:02.897Z,21.50
2017-07-10T12:52:04.671Z,22.40
2017-07-10T12:57:06.432Z,27.30
2017-07-10T13:02:08.189Z,29.90
2017-07-10T13:07:09.923Z,30.67
2017-07-10T13:12:11.651Z,29.20
2017-07-10T13:17:13.375Z,29.73
2017-07-10T13:22:15.114Z,32.37
2017-07-10T13:27:16.854Z,31.80
2017-07-10T13:32:18.604Z,31.40
2017-07-10T13:37:20.420Z,34.40
2017-07-10T13:42:22.191Z,33.23
2017-07-10T13:47:24.453Z,33.80
2017-07-10T13:52:26.354Z,32.23
2017-07-10T13:57:29.120Z,31.07
2017-07-10T14:02:31.059Z,31.30
2017-07-10T14:07:34.776Z,34.10
2017-07-10T14:12:36.727Z,34.63
2017-07-10T14:17:38.476Z,37.03
2017-07-10T14:22:40.230Z,35.80
2017-07-10T14:27:42.208Z,33.90
2017-07-10T14:32:44.070Z,33.20
2017-07-10T14:37:46.569Z,36.57
2017-07-10T14:42:48.365Z,34.97
2017-07-10T14:47:50.943Z,35.70
2017-07-10T14:52:52.725Z,31.80
2017-07-10T14:57:56.642Z,33.90
2017-07-10T15:02:58.527Z,34.87
2017-07-10T15:08:01.256Z,32.07
2017-07-10T15:13:03.219Z,30.23
2017-07-10T15:18:05.005Z,32.10
2017-07-10T15:23:07.445Z,27.60
2017-07-10T15:28:09.310Z,29.03
2017-07-10T15:33:11.098Z,28.50
2017-07-10T15:38:12.863Z,25.97
2017-07-10T15:43:15.764Z,25.73
2017-07-10T15:48:17.535Z,27.73
2017-07-10T15:53:19.299Z,26.27
2017-07-10T15:58:21.137Z,26.70
2017-07-10T16:03:23.108Z,28.00
2017-07-10T16:08:24.907Z,27.70
2017-07-10T16:13:27.021Z,27.23
2017-07-10T16:18:29.633Z,27.10
2017-07-10T16:23:31.391Z,27.50
2017-07-10T16:28:33.505Z,27.20
2017-07-10T16:33:36.161Z,28.23
2017-07-10T16:38:38.057Z,27.30
2017-07-10T16:43:39.880Z,27.70
2017-07-10T16:48:42.476Z,29.60
2017-07-10T16:53:44.537Z,28.63
2017-07-10T16:58:46.917Z,28.77
2017-07-10T17:03:48.675Z,28.23
2017-07-10T17:08:50.519Z,26.80
2017-07-10T17:13:52.324Z,30.07
2017-07-10T17:18:54.094Z,28.90
2017-07-10T17:23:55.913Z,27.20
2017-07-10T17:28:57.812Z,25.77
2017-07-10T17:34:00.090Z,26.37
2017-07-10T17:39:02.024Z,24.37
2017-07-10T17:44:03.948Z,24.80
2017-07-10T17:49:05.736Z,26.70
2017-07-10T17:54:08.064Z,23.40
2017-07-10T17:59:10.116Z,24.17
2017-07-10T18:04:12.722Z,25.20
2017-07-10T18:09:14.733Z,24.53
2017-07-10T18:14:16.621Z,25.37
2017-07-10T18:19:18.579Z,24.40
2017-07-10T18:24:21.768Z,23.40
2017-07-10T18:29:23.552Z,23.47
2017-07-10T18:34:26.152Z,21.60
2017-07-10T18:39:28.553Z,20.20
2017-07-10T18:44:31.154Z,21.00
2017-07-10T18:49:33.317Z,19.07
2017-07-10T18:54:37.048Z,18.90
2017-07-10T18:59:39.515Z,19.17
2017-07-10T19:04:41.699Z,18.57
2017-07-10T19:09:43.916Z,19.10
2017-07-10T19:14:45.982Z,18.30
2017-07-10T19:19:48.249Z,19.50
2017-07-10T19:24:51.476Z,20.33
2017-07-10T19:29:53.640Z,20.07
2017-07-10T19:34:55.379Z,21.40
2017-07-10T19:39:57.528Z,22.70
2017-07-10T19:44:59.302Z,18.97
2017-07-10T19:50:01.193Z,18.23
2017-07-10T19:55:03.966Z,18.33
2017-07-10T20:00:05.802Z,17.30
2017-07-10T20:05:07.727Z,17.20
2017-07-10T20:10:09.557Z,18.87
2017-07-10T20:15:11.373Z,20.10
2017-07-10T20:20:13.177Z,20.43
2017-07-10T20:25:15.232Z,23.27
2017-07-10T20:30:17.206Z,23.83
2017-07-10T20:35:19.304Z,25.90
2017-07-10T20:40:22.150Z,28.20
2017-07-10T20:45:25.405Z,25.87
2017-07-10T20:50:27.592Z,27.50
2017-07-10T20:55:29.662Z,26.63
2017-07-10T21:00:31.811Z,25.70
2017-07-10T21:05:33.627Z,26.97
2017-07-10T21:10:35.406Z,29.67
2017-07-10T21:15:37.255Z,29.07
2017-07-10T21:20:39.119Z,27.83
2017-07-10T21:25:40.972Z,29.80
2017-07-10T21:30:42.719Z,27.83
2017-07-10T21:35:44.823Z,30.50
2017-07-10T21:40:47.364Z,32.40
2017-07-10T21:45:49.150Z,32.53
2017-07-10T21:50:54.362Z,35.13
2017-07-10T21:55:56.686Z,33.10
2017-07-10T22:00:58.829Z,36.30
2017-07-10T22:06:00.623Z,34.67
2017-07-10T22:11:02.384Z,34.90
2017-07-10T22:16:04.118Z,30.93
2017-07-10T22:21:05.883Z,31.87
2017-07-10T22:26:08.063Z,31.97
2017-07-10T22:31:10.269Z,28.50
2017-07-10T22:36:12.422Z,29.40
2017-07-10T22:41:14.215Z,27.53
2017-07-10T22:46:16.258Z,30.30
2017-07-10T22:51:18.808Z,28.80
2017-07-10T22:56:20.597Z,29.40
2017-07-10T23:01:22.460Z,26.80
2017-07-10T23:06:24.179Z,28.53
2017-07-10T23:11:26.213Z,32.20
2017-07-10T23:16:28.723Z,34.47
2017-07-10T23:21:30.475Z,28.30
2017-07-10T23:26:32.248Z,29.87
2017-07-10T23:31:34.308Z,30.60
2017-07-10T23:36:36.999Z,29.20
2017-07-10T23:41:38.770Z,26.80
2017-07-10T23:46:40.669Z,26.73
2017-07-10T23:51:43.330Z,28.17
2017-07-10T23:56:45.192Z,28.30
